Tiempo atmosférico en la estación meteorológica de Olivenza, Badajoz (93 m.)



Fecha
DESCASC
Temp. máxima en grados centígrados (hora)
DESCASC
Temp. mínima en grados centígrados (hora)
DESCASC
Temp. media en grados centígrados
DESCASC
Racha de viento máxima en m/sg (hora)
DESCASC
Velocidad máxima media en intervalos de 10 minutos(hora)
DESCASC
Precipitaciones diarias en mm
DESCASC
Precipitaciones de 00:00 a 06:00 en mm
DESCASC
Precipitaciones de 06:00 a 12:00 en mm
DESCASC
Precipitaciones de 12:00 a 18:00 en mm
DESCASC
Precipitaciones de 18:00 a 24:00 en mm
DESCASC
22-04-2019 22.5 (17:00) 10.2 (08:20) 16.3 11.67 (20:00) 7.78 (20:00) 0 0 0 0 0
21-04-2019 22 (17:00) 6.4 (08:00) 14.2 10.83 (17:40) 7.5 (11:10) 0 0 0 0 0
20-04-2019 21.7 (17:40) 8.2 (07:20) 15 20 (15:30) 13.61 (15:30) 0.8 0.4 0.4 0 0
19-04-2019 19.5 (18:30) 9.5 (08:20) 14.5 10.56 (19:10) 8.61 (19:10) 2.4 0 0.2 0 2.2
18-04-2019 20 (18:00) 10.6 (00:00) 15.3 10.56 (19:30) 7.5 (19:50) 0 0 0 0 0
17-04-2019 20.6 (14:10) 9.7 (00:00) 15.2 15.28 (14:20) 9.72 (12:10) 1.8 0 0 0.8 1
16-04-2019 24.6 (17:40) 7.5 (00:00) 16.1 8.61 (18:10) 5.83 (22:50) 0 0 0 0 0
15-04-2019 20.4 (17:30) 11.8 (00:00) 16.1 11.39 (14:00) 7.22 (19:00) 0 0 0 0 0
14-04-2019 24.5 (17:00) 12.9 (00:00) 18.7 5 (17:10) 2.78 (07:50) 0 0 0 0 0
13-04-2019 23.9 (17:30) 9.1 (00:00) 16.5 7.78 (16:40) 4.44 (18:50) 0 0 0 0 0
12-04-2019 21.6 (18:00) 6.1 (00:00) 13.9 7.5 (17:00) 3.61 (17:00) 0 0 0 0 0
11-04-2019 20.2 (17:20) 5.9 (00:00) 13.1 7.5 (16:40) 4.17 (18:20) 0 0 0 0 0
10-04-2019 18.6 (17:10) 7.4 (00:00) 13 12.22 (18:30) 6.39 (18:10) 0 0 0 0 0
09-04-2019 17.5 (17:40) 8.5 (00:00) 13 13.33 (11:50) 8.61 (11:50) 2.2 0 0 2.2 0
08-04-2019 18 (16:00) 9.2 (00:00) 13.6 13.33 (18:50) 8.06 (18:50) 1.8 1.8 0 0 0
07-04-2019 14 (17:50) 8.2 (00:00) 11.1 10.56 (17:40) 6.94 (17:50) 1.4 0 0 0.6 0.8
06-04-2019 15.1 (14:10) 6.7 (00:00) 10.9 13.33 (18:50) 8.61 (18:50) 3.8 0 0.4 3.4 0
05-04-2019 13 (15:10) 4.8 (00:00) 8.9 15.83 (17:00) 9.17 (17:00) 11.8 4.6 0.6 3.6 3
04-04-2019 17.1 (17:10) 3 (00:00) 10.1 10.28 (21:40) 7.22 (19:10) 1.4 0 0 0 1.4
03-04-2019 18.6 (16:50) 6.7 (00:00) 12.7 9.44 (15:30) 5.83 (20:00) 0 0 0 0 0
02-04-2019 21.4 (16:50) 6.8 (00:00) 14.1 6.94 (18:00) 4.17 (18:00) 0 0 0 0 0
01-04-2019 19.3 (14:30) 10.7 (00:00) 15 10.28 (15:20) 7.22 (15:20) 3.4 1.6 0 1.4 0.4
31-03-2019 21.4 (17:00) 8.8 (00:00) 15.1 13.61 (19:40) 9.17 (19:20) 14.2 0 0 0 14.2
30-03-2019 22.5 (17:00) 8.5 (00:00) 15.5 10.56 (13:30) 7.22 (20:40) 0 0 0 0 0
29-03-2019 22.4 (17:30) 3.6 (00:00) 13 11.39 (15:00) 6.11 (11:40) 0 0 0 0 0
28-03-2019 22.2 (16:10) 6.3 (00:00) 14.3 12.5 (15:20) 8.61 (15:40) 0 0 0 0 0
27-03-2019 21.5 (16:10) 7.2 (00:00) 14.3 13.33 (14:50) 8.61 (15:10) 0 0 0 0 0
26-03-2019 25.8 (17:10) 6.1 (00:00) 15.9 15.28 (14:10) 10.83 (11:40) 0 0 0 0 0
25-03-2019 23.9 (16:20) 7.2 (00:00) 15.5 13.06 (14:10) 9.72 (17:30) 0 0 0 0 0

Gráficas

Temp. máximas Temp. mínimas Temp. medias Precipitaciones Rachas de viento máximas Velocidades máximas media en intervalos de 10 minutos

Datos horarios

Fecha y hora oficial Temperatura (ºC) Velocidad del viento (km/h) Dirección del viento Racha (km/h) Dirección de racha Precipitación (mm) Presión (hPa) Tendencia (hPa) Humedad (%)
2019-04-23 23:00:00 7.3 14 Sudoeste 22 Sudoeste 0 -- -- 92
2019-04-23 22:00:00 7.6 10 Sur 21 Sudoeste 1 -- -- 94
2019-04-23 21:00:00 8.1 8 Sur 15 Sudoeste 0.6 -- -- 93
2019-04-23 20:00:00 8.3 12 Sudoeste 21 Oeste 2.4 -- -- 90
2019-04-23 19:00:00 10.7 15 Oeste 35 Noroeste 0 -- -- 66
2019-04-23 18:00:00 12.7 24 Oeste 44 Oeste 0 -- -- 61
2019-04-23 17:00:00 13.3 21 Oeste 39 Sudoeste 0 -- -- 57
2019-04-23 16:00:00 12.9 19 Oeste 44 Oeste 0 -- -- 60
2019-04-23 15:00:00 13.6 23 Oeste 42 Oeste 0 -- -- 54
2019-04-23 14:00:00 13.1 23 Oeste 50 Oeste 0 -- -- 58
2019-04-23 13:00:00 12.6 33 Oeste 57 Oeste 0 -- -- 63
2019-04-23 12:00:00 10.4 23 Oeste 41 Oeste 0.2 -- -- 79
2019-04-23 11:00:00 10.2 26 Sudoeste 41 Sudoeste 0 -- -- 75
2019-04-23 10:00:00 9 24 Sudoeste 37 Sudoeste 0 -- -- 83
2019-04-23 09:00:00 7.5 16 Sudoeste 28 Sudoeste 0 -- -- 94
2019-04-23 08:00:00 7.2 17 Sudoeste 24 Sudoeste 0 -- -- 96
2019-04-23 07:00:00 7.7 13 Sudoeste 21 Oeste 0 -- -- 97
2019-04-23 06:00:00 8.3 14 Sudoeste 22 Oeste 0 -- -- 97
2019-04-23 05:00:00 8.9 14 Sudoeste 24 Oeste 0 -- -- 97
2019-04-23 04:00:00 9.3 15 Sudoeste 32 Sudoeste 1.6 -- -- 97
2019-04-23 03:00:00 9.5 19 Oeste 27 Oeste 1 -- -- 96
2019-04-23 02:00:00 10.4 17 Oeste 47 Sudoeste 3.6 -- -- 93
2019-04-23 01:00:00 13.1 26 Sudoeste 41 Sudoeste 0 -- -- 82
2019-04-23 00:00:00 13.5 18 Sudoeste 32 Sudoeste 0 -- -- 79
2019-04-22 23:00:00 13.7 22 Sudoeste 36 Sudoeste 0 -- -- 79
2019-04-22 22:00:00 14.5 25 Oeste 39 Sudoeste 0 -- -- 78
2019-04-22 21:00:00 16.6 23 Sudoeste 40 Oeste 0 -- -- 64
2019-04-22 20:00:00 18.4 28 Sudoeste 42 Oeste 0 -- -- 53
2019-04-22 19:00:00 19.5 23 Sudoeste 37 Sudoeste 0 -- -- 52
2019-04-22 18:00:00 21.2 21 Oeste 39 Sudoeste 0 -- -- 40
2019-04-22 17:00:00 22.5 21 Oeste 36 Sudoeste 0 -- -- 34
2019-04-22 16:00:00 21.9 19 Oeste 39 Sudoeste 0 -- -- 39
2019-04-22 15:00:00 21.9 18 Sudoeste 34 Sudoeste 0 -- -- 42
2019-04-22 14:00:00 21 18 Sudoeste 31 Sudoeste 0 -- -- 54
2019-04-22 13:00:00 19.9 14 Sudoeste 30 Oeste 0 -- -- 59
2019-04-22 12:00:00 18.3 12 Sudoeste 20 Sudoeste 0 -- -- 61
2019-04-22 11:00:00 16.1 11 Sudoeste 21 Sudoeste 0 -- -- 68
2019-04-22 10:00:00 14.3 10 Sur 18 Sudoeste 0 -- -- 72
2019-04-22 09:00:00 11.4 7 Sudoeste 12 Sudoeste 0 -- -- 84
2019-04-22 08:00:00 10.3 7 Noroeste 11 Noroeste 0 -- -- 84
2019-04-22 07:00:00 11 0 Calma 8 Este 0 -- -- 78
2019-04-22 06:00:00 11.6 2 Sur 14 Este 0 -- -- 79
2019-04-22 05:00:00 11.6 4 Sudoeste 14 Este 0 -- -- 79
2019-04-22 04:00:00 12.5 4 Sudoeste 6 Sudoeste 0 -- -- 71
2019-04-22 03:00:00 12.3 6 Sur 13 Sudeste 0 -- -- 75
2019-04-22 02:00:00 13 0 Calma 6 Nordeste 0 -- -- 70
2019-04-22 01:00:00 13.7 3 Oeste 4 Sudoeste 0 -- -- 63
2019-04-22 00:00:00 14.4 4 Sur 9 Sur 0 -- -- 62
2019-04-21 23:00:00 15.6 9 Sudeste 13 Sudeste 0 -- -- 58
2019-04-21 22:00:00 16.2 6 Sudeste 18 Este 0 -- -- 54
2019-04-21 21:00:00 17.4 14 Este 23 Nordeste 0 -- -- 50
2019-04-21 20:00:00 19 18 Nordeste 28 Nordeste 0 -- -- 45
2019-04-21 19:00:00 19.7 15 Nordeste 27 Nordeste 0 -- -- 43
2019-04-21 18:00:00 19.6 16 Norte 39 Nordeste 0 -- -- 43
2019-04-21 17:00:00 22 24 Nordeste 34 Norte 0 -- -- 39
2019-04-21 16:00:00 20.2 23 Nordeste 37 Nordeste 0 -- -- 43
2019-04-21 15:00:00 20.1 22 Nordeste 33 Norte 0 -- -- 43
2019-04-21 14:00:00 20.3 21 Nordeste 32 Nordeste 0 -- -- 44
2019-04-21 13:00:00 18.9 13 Nordeste 32 Nordeste 0 -- -- 47
2019-04-21 12:00:00 17.8 23 Nordeste 36 Este 0 -- -- 51
2019-04-21 11:00:00 15.7 27 Nordeste 34 Este 0 -- -- 58
2019-04-21 10:00:00 12.5 15 Nordeste 22 Nordeste 0 -- -- 80
2019-04-21 09:00:00 9.3 10 Este 14 Nordeste 0 -- -- 92
2019-04-21 08:00:00 6.4 14 Nordeste 16 Norte 0 -- -- 94
2019-04-21 07:00:00 7.4 8 Norte 12 Nordeste 0 -- -- 94
2019-04-21 06:00:00 7.6 12 Nordeste 18 Nordeste 0 -- -- 94
2019-04-21 05:00:00 7.5 13 Nordeste 18 Nordeste 0 -- -- 92
2019-04-21 04:00:00 7.8 12 Nordeste 18 Nordeste 0 -- -- 91
2019-04-21 03:00:00 8.5 14 Nordeste 19 Este 0 -- -- 88
2019-04-21 02:00:00 10 15 Este 27 Este 0 -- -- 82
2019-04-21 01:00:00 12.5 21 Este 28 Este 0 -- -- 71
2019-04-21 00:00:00 12.8 17 Este 27 Este 0 -- -- 69
2019-04-20 23:00:00 13.4 20 Este 43 Este 0 -- -- 66
2019-04-20 22:00:00 14.9 30 Este 56 Este 0 -- -- 61
2019-04-20 21:00:00 16.1 19 Este 34 Este 0 -- -- 64
2019-04-20 20:00:00 18.2 21 Este 37 Este 0 -- -- 58
2019-04-20 19:00:00 20.2 26 Este 43 Este 0 -- -- 53
2019-04-20 18:00:00 21.5 29 Este 49 Este 0 -- -- 47
2019-04-20 17:00:00 20.9 37 Este 55 Nordeste 0 -- -- 47
2019-04-20 16:00:00 20.4 38 Este 72 Nordeste 0 -- -- 53
2019-04-20 15:00:00 19.6 34 Este 62 Nordeste 0 -- -- 52
2019-04-20 14:00:00 20 37 Este 62 Nordeste 0 -- -- 50
2019-04-20 13:00:00 18 35 Nordeste 49 Nordeste 0 -- -- 64
2019-04-20 12:00:00 15.3 22 Nordeste 30 Nordeste 0 -- -- 86
2019-04-20 11:00:00 13 11 Nordeste 16 Este 0 -- -- 95
2019-04-20 10:00:00 10.9 12 Nordeste 15 Nordeste 0.4 -- -- 99
2019-04-20 09:00:00 9.6 10 Nordeste 16 Nordeste 0 -- -- 99
2019-04-20 08:00:00 8.5 10 Nordeste 13 Nordeste 0 -- -- 98
2019-04-20 07:00:00 8.3 9 Nordeste 14 Este 0 -- -- 97
2019-04-20 06:00:00 8.9 9 Este 18 Nordeste 0 -- -- 97
2019-04-20 05:00:00 9.6 18 Nordeste 26 Nordeste 0 -- -- 97
2019-04-20 04:00:00 9.5 15 Nordeste 21 Nordeste 0 -- -- 99
2019-04-20 03:00:00 9.8 12 Nordeste 19 Nordeste 0 -- -- 98
2019-04-20 02:00:00 10.8 17 Nordeste 23 Nordeste 0 -- -- 97
2019-04-20 01:00:00 11.6 17 Nordeste 21 Nordeste 0.4 -- -- 97
2019-04-20 00:00:00 11.6 10 Nordeste 13 Nordeste 0.2 -- -- 96
2019-04-19 23:00:00 11.7 5 Norte 9 Norte 0 -- -- 95
2019-04-19 22:00:00 11.7 9 Este 14 Sudeste 2 -- -- 91
2019-04-19 21:00:00 13.2 10 Sudeste 21 Sudeste 0 -- -- 81
2019-04-19 20:00:00 14 12 Sudeste 38 Nordeste 0 -- -- 79
2019-04-19 19:00:00 16.2 28 Nordeste 37 Nordeste 0 -- -- 60
2019-04-19 18:00:00 18.5 4 Nordeste 13 Nordeste 0 -- -- 54
2019-04-19 17:00:00 17.2 5 Sudoeste 11 Sur 0 -- -- 65
2019-04-19 16:00:00 16.8 5 Sudeste 15 Nordeste 0 -- -- 67
2019-04-19 15:00:00 15.6 12 Nordeste 21 Nordeste 0 -- -- 73
2019-04-19 14:00:00 16.6 6 Norte 13 Norte 0 -- -- 72
2019-04-19 13:00:00 15.7 7 Norte 15 Noroeste 0 -- -- 76
2019-04-19 12:00:00 12.9 5 Noroeste 14 Oeste 0.2 -- -- 91
2019-04-19 11:00:00 11.8 10 Oeste 17 Oeste 0 -- -- 90
2019-04-19 10:00:00 11.3 11 Sudoeste 15 Sudoeste 0 -- -- 92
2019-04-19 09:00:00 10.5 10 Sudoeste 17 Sudoeste 0 -- -- 95
2019-04-19 08:00:00 9.8 9 Sudoeste 15 Sudoeste 0 -- -- 94
2019-04-19 07:00:00 9.9 11 Sudoeste 18 Sudoeste 0 -- -- 94
2019-04-19 06:00:00 10.3 9 Sudoeste 16 Sudoeste 0 -- -- 92
2019-04-19 05:00:00 10.7 8 Sudoeste 16 Sudoeste 0 -- -- 90
2019-04-19 04:00:00 10.6 10 Sudoeste 20 Sudoeste 0 -- -- 90
2019-04-19 03:00:00 10.9 13 Sudoeste 21 Sudoeste 0 -- -- 89
2019-04-19 02:00:00 11.5 13 Sudoeste 20 Sudoeste 0 -- -- 84
2019-04-19 01:00:00 12 10 Sudoeste 14 Sudoeste 0 -- -- 81
2019-04-19 00:00:00 12.5 7 Sudoeste 13 Sudoeste 0 -- -- 80
2019-04-18 23:00:00 12 6 Este 9 Este 0 -- -- 74
2019-04-18 22:00:00 12.8 5 Noroeste 27 Norte 0 -- -- 67
2019-04-18 21:00:00 15.1 12 Oeste 38 Oeste 0 -- -- 60
2019-04-18 20:00:00 17.8 24 Oeste 38 Oeste 0 -- -- 52
2019-04-18 19:00:00 19.2 20 Oeste 35 Oeste 0 -- -- 52
2019-04-18 18:00:00 20 15 Oeste 26 Oeste 0 -- -- 52
2019-04-18 17:00:00 19.3 12 Oeste 23 Oeste 0 -- -- 51
2019-04-18 16:00:00 17.6 7 Oeste 19 Oeste 0 -- -- 58
2019-04-18 15:00:00 18.6 9 Noroeste 21 Oeste 0 -- -- 55
2019-04-18 14:00:00 16.3 9 Sudoeste 22 Sudoeste 0 -- -- 65
2019-04-18 13:00:00 14.9 5 Sur 10 Oeste 0 -- -- 72
2019-04-18 12:00:00 13.6 3 Noroeste 11 Sudoeste 0 -- -- 82
2019-04-18 11:00:00 12.3 7 Sudoeste 15 Oeste 0 -- -- 90
2019-04-18 10:00:00 12 10 Oeste 14 Oeste 0 -- -- 93
2019-04-18 09:00:00 11.3 8 Sudoeste 15 Sudoeste 0 -- -- 95
2019-04-18 08:00:00 10.9 11 Sudoeste 17 Sur 0 -- -- 95
2019-04-18 07:00:00 11 12 Sudoeste 19 Sudoeste 0 -- -- 94
2019-04-18 06:00:00 11.2 15 Sudoeste 21 Sudoeste 0 -- -- 91
2019-04-18 05:00:00 11.2 15 Sur 23 Sur 0 -- -- 90
2019-04-18 04:00:00 11.3 13 Sur 22 Sudoeste 0 -- -- 90
2019-04-18 03:00:00 10.6 15 Sur 23 Sudoeste 0 -- -- 92
2019-04-18 02:00:00 10.9 18 Sudoeste 33 Sudoeste 0 -- -- 92
2019-04-18 01:00:00 11 17 Sudoeste 28 Sudoeste 0 -- -- 92
2019-04-18 00:00:00 10.7 20 Sudoeste 34 Sudoeste 0 -- -- 94
2019-04-17 23:00:00 10.8 24 Sur 39 Sur 0 -- -- 95
2019-04-17 22:00:00 11.5 24 Sur 35 Sudoeste 0.2 -- -- 90
2019-04-17 21:00:00 11.8 17 Sudoeste 34 Sur 0 -- -- 90
2019-04-17 20:00:00 12.2 21 Sudoeste 35 Sudoeste 0 -- -- 89
2019-04-17 19:00:00 12.9 14 Sur 31 Sur 0.8 -- -- 90
2019-04-17 18:00:00 13.7 18 Sur 28 Sudoeste 0 -- -- 87
2019-04-17 17:00:00 12.7 15 Sudoeste 36 Sudoeste 0.8 -- -- 93
2019-04-17 16:00:00 13.4 21 Sudoeste 44 Sudoeste 0 -- -- 85
2019-04-17 15:00:00 15.3 31 Oeste 55 Sudoeste 0 -- -- 76
2019-04-17 14:00:00 19.8 35 Sur 51 Sur 0 -- -- 58
2019-04-17 13:00:00 18.1 29 Sur 51 Sudeste 0 -- -- 66
2019-04-17 12:00:00 17.1 32 Sur 51 Sur 0 -- -- 70
2019-04-17 11:00:00 15.5 17 Sudeste 27 Sudeste 0 -- -- 73
2019-04-17 10:00:00 13.7 13 Sudeste 22 Sudeste 0 -- -- 74
2019-04-17 09:00:00 12.8 14 Sudeste 21 Sudeste 0 -- -- 78
2019-04-17 08:00:00 11.6 13 Sudeste 18 Sudeste 0 -- -- 80
2019-04-17 07:00:00 11 10 Sudeste 15 Sudeste 0 -- -- 81
2019-04-17 06:00:00 9.8 11 Sudeste 14 Sudeste 0 -- -- 81
2019-04-17 05:00:00 10.3 7 Sur 9 Sur 0 -- -- 78
2019-04-17 04:00:00 10.3 6 Sur 12 Sudoeste 0 -- -- 77
2019-04-17 03:00:00 11.7 4 Sur 16 Sudoeste 0 -- -- 73
2019-04-17 02:00:00 13.9 16 Sudoeste 27 Sudoeste 0 -- -- 61
2019-04-17 01:00:00 14.9 18 Sudoeste 31 Sur 0 -- -- 55
2019-04-17 00:00:00 15.2 18 Sur 24 Sur 0 -- -- 47
2019-04-16 23:00:00 17.4 18 Sudoeste 28 Sudoeste 0 -- -- 38
2019-04-16 22:00:00 18.5 15 Sudoeste 23 Sudoeste 0 -- -- 39
2019-04-16 21:00:00 19.5 14 Sudoeste 26 Sudoeste 0 -- -- 43
2019-04-16 20:00:00 22 17 Sudoeste 25 Sudoeste 0 -- -- 37
2019-04-16 19:00:00 23.5 14 Sudoeste 31 Sudoeste 0 -- -- 34
2019-04-16 18:00:00 24.4 15 Sur 28 Sur 0 -- -- 33
2019-04-16 17:00:00 24.1 9 Sur 21 Sudeste 0 -- -- 37
2019-04-16 16:00:00 23.2 11 Sur 26 Sur 0 -- -- 39
2019-04-16 15:00:00 22.2 9 Este 25 Sudeste 0 -- -- 39
2019-04-16 14:00:00 21.1 10 Sudeste 21 Sudeste 0 -- -- 43
2019-04-16 13:00:00 19.6 5 Este 20 Sudeste 0 -- -- 55
2019-04-16 12:00:00 17.7 6 Este 14 Nordeste 0 -- -- 67
2019-04-16 11:00:00 14.6 9 Nordeste 14 Este 0 -- -- 79
2019-04-16 10:00:00 12.2 3 Este 8 Nordeste 0 -- -- 87
2019-04-16 09:00:00 9 0 Calma 9 Sudeste 0 -- -- 97
2019-04-16 08:00:00 7.7 9 Sudeste 13 Sudeste 0 -- -- 97
2019-04-16 07:00:00 7.9 0 Calma 8 Sudoeste 0 -- -- 96
2019-04-16 06:00:00 8 4 Oeste 9 Sur 0 -- -- 95
2019-04-16 05:00:00 8.9 2 Sur 8 Sur 0 -- -- 92
2019-04-16 04:00:00 9.4 4 Sudoeste 8 Noroeste 0 -- -- 91
2019-04-16 03:00:00 10 7 Oeste 10 Oeste 0 -- -- 90
2019-04-16 02:00:00 10.5 6 Oeste 11 Oeste 0 -- -- 88
2019-04-16 01:00:00 11.4 6 Oeste 10 Oeste 0 -- -- 84
2019-04-16 00:00:00 12.6 6 Oeste 12 Oeste 0 -- -- 79
2019-04-15 23:00:00 13.9 5 Sudoeste 12 Oeste 0 -- -- 74
2019-04-15 22:00:00 14.3 6 Oeste 16 Oeste 0 -- -- 66
2019-04-15 21:00:00 16.7 12 Oeste 32 Sudoeste 0 -- -- 58
2019-04-15 20:00:00 18.7 23 Oeste 33 Sudoeste 0 -- -- 55
2019-04-15 19:00:00 20.1 26 Oeste 38 Sudoeste 0 -- -- 51
2019-04-15 18:00:00 19.5 14 Oeste 30 Oeste 0 -- -- 53
2019-04-15 17:00:00 19.7 18 Oeste 36 Oeste 0 -- -- 61
2019-04-15 16:00:00 17.9 22 Oeste 37 Oeste 0 -- -- 66
2019-04-15 15:00:00 18.5 24 Oeste 37 Noroeste 0 -- -- 67
2019-04-15 14:00:00 20.1 21 Oeste 41 Sudoeste 0 -- -- 56
2019-04-15 13:00:00 19 12 Oeste 25 Oeste 0 -- -- 61
2019-04-15 12:00:00 17.4 13 Sudoeste 33 Oeste 0 -- -- 67
2019-04-15 11:00:00 16.3 18 Sudoeste 29 Sudoeste 0 -- -- 77
2019-04-15 10:00:00 15.1 14 Sudoeste 24 Sudoeste 0 -- -- 87
2019-04-15 09:00:00 12.6 7 Sudoeste 13 Sudoeste 0 -- -- 97
2019-04-15 08:00:00 12.6 4 Oeste 10 Sudoeste 0 -- -- 95
2019-04-15 07:00:00 12.5 5 Sudoeste 6 Sudoeste 0 -- -- 94
2019-04-15 06:00:00 13.2 3 Sudoeste 12 Sudoeste 0 -- -- 91
2019-04-15 05:00:00 13.2 8 Sudoeste 9 Sur 0 -- -- 92
2019-04-15 04:00:00 14 5 Sur 11 Noroeste 0 -- -- 88
2019-04-15 03:00:00 16.2 3 Sudoeste 13 Sudoeste 0 -- -- 74
2019-04-15 02:00:00 15.9 9 Sur 16 Sudeste 0 -- -- 79
2019-04-15 01:00:00 17.3 12 Sur 13 Sur 0 -- -- 75
2019-04-15 00:00:00 17.1 8 Sur 11 Sudeste 0 -- -- 77
2019-04-14 23:00:00 18.3 9 Sur 13 Sur 0 -- -- 72
2019-04-14 22:00:00 19.1 5 Sudoeste 9 Sudoeste 0 -- -- 70
2019-04-14 21:00:00 20.8 8 Sudoeste 13 Sudoeste 0 -- -- 61
2019-04-14 20:00:00 22.8 9 Sudoeste 14 Sudoeste 0 -- -- 56
2019-04-14 19:00:00 23.6 8 Oeste 13 Oeste 0 -- -- 57
2019-04-14 18:00:00 23.6 8 Oeste 18 Oeste 0 -- -- 58
2019-04-14 17:00:00 24.5 7 Sudoeste 16 Oeste 0 -- -- 57
2019-04-14 16:00:00 23.9 4 Oeste 8 Sur 0 -- -- 58
2019-04-14 15:00:00 22.1 5 Sudeste 10 Nordeste 0 -- -- 61
2019-04-14 14:00:00 21.6 5 Nordeste 9 Este 0 -- -- 64
2019-04-14 13:00:00 20.7 4 Noroeste 12 Este 0 -- -- 67
2019-04-14 12:00:00 18.4 3 Sudoeste 12 Oeste 0 -- -- 76
2019-04-14 11:00:00 17.6 7 Oeste 12 Oeste 0 -- -- 79
2019-04-14 10:00:00 16 8 Sudoeste 14 Sudoeste 0 -- -- 85
2019-04-14 09:00:00 14.4 9 Sur 13 Sur 0 -- -- 92
2019-04-14 08:00:00 14 8 Sudoeste 15 Sudoeste 0 -- -- 92
2019-04-14 07:00:00 14.4 6 Sudoeste 9 Sudoeste 0 -- -- 90
2019-04-14 06:00:00 14.3 2 Sur 6 Sur 0 -- -- 91
2019-04-14 05:00:00 13.9 4 Sur 7 Sudoeste 0 -- -- 92
2019-04-14 04:00:00 13.4 2 Sur 6 Oeste 0 -- -- 94
2019-04-14 03:00:00 13.2 5 Sudoeste 9 Oeste 0 -- -- 93
2019-04-14 02:00:00 13.6 5 Oeste 14 Oeste 0 -- -- 92
2019-04-14 01:00:00 13.9 4 Sudoeste 12 Oeste 0 -- -- 92
2019-04-14 00:00:00 14.8 7 Oeste 16 Noroeste 0 -- -- 87
2019-04-13 23:00:00 16 10 Noroeste 17 Oeste 0 -- -- 80
2019-04-13 22:00:00 16.6 10 Oeste 21 Noroeste 0 -- -- 76
2019-04-13 21:00:00 18.8 13 Noroeste 24 Oeste 0 -- -- 64
2019-04-13 20:00:00 20.2 11 Oeste 23 Sudoeste 0 -- -- 51
2019-04-13 19:00:00 21.3 14 Oeste 22 Oeste 0 -- -- 41
2019-04-13 18:00:00 22.9 12 Oeste 24 Sudoeste 0 -- -- 35
2019-04-13 17:00:00 22.9 10 Sudoeste 28 Oeste 0 -- -- 33
2019-04-13 16:00:00 22.3 9 Sudoeste 23 Sur 0 -- -- 35
2019-04-13 15:00:00 21.2 11 Oeste 24 Sudoeste 0 -- -- 34
2019-04-13 14:00:00 20 12 Sudoeste 19 Sudoeste 0 -- -- 49
2019-04-13 13:00:00 18.6 11 Oeste 20 Oeste 0 -- -- 50
2019-04-13 12:00:00 17.4 9 Sudoeste 17 Sudoeste 0 -- -- 62
2019-04-13 11:00:00 14.4 12 Sudoeste 19 Sudoeste 0 -- -- 74
2019-04-13 10:00:00 11.7 13 Sudoeste 18 Sudoeste 0 -- -- 81
2019-04-13 09:00:00 10.6 5 Sudoeste 9 Oeste 0 -- -- 85
2019-04-13 08:00:00 9.5 5 Sudoeste 10 Sur 0 -- -- 85
2019-04-13 07:00:00 9.5 8 Sudoeste 12 Sudoeste 0 -- -- 83
2019-04-13 06:00:00 10.1 6 Sudoeste 11 Sudoeste 0 -- -- 79
2019-04-13 05:00:00 10.5 5 Sudoeste 9 Sudoeste 0 -- -- 78
2019-04-13 04:00:00 10.5 7 Sudoeste 14 Oeste 0 -- -- 80
2019-04-13 03:00:00 11 8 Sudoeste 13 Oeste 0 -- -- 82
2019-04-13 02:00:00 11.2 9 Oeste 18 Oeste 0 -- -- 82
2019-04-13 01:00:00 12 10 Oeste 19 Oeste 0 -- -- 72
2019-04-13 00:00:00 14 7 Oeste 12 Oeste 0 -- -- 55
2019-04-12 23:00:00 14.6 6 Oeste 8 Oeste 0 -- -- 51
2019-04-12 22:00:00 15.6 7 Oeste 13 Noroeste 0 -- -- 50
2019-04-12 21:00:00 17.6 8 Noroeste 15 Norte 0 -- -- 44
2019-04-12 20:00:00 20.5 5 Noroeste 17 Noroeste 0 -- -- 35
2019-04-12 19:00:00 20.8 5 Noroeste 17 Norte 0 -- -- 37
2019-04-12 18:00:00 21.6 5 Noroeste 19 Noroeste 0 -- -- 33
2019-04-12 17:00:00 20.9 13 Norte 27 Noroeste 0 -- -- 37
2019-04-12 16:00:00 20.2 10 Norte 25 Nordeste 0 -- -- 37
2019-04-12 15:00:00 19.7 9 Este 17 Norte 0 -- -- 38
2019-04-12 14:00:00 18.4 10 Norte 18 Norte 0 -- -- 46
2019-04-12 13:00:00 16.9 8 Nordeste 18 Nordeste 0 -- -- 53
2019-04-12 12:00:00 15.4 9 Nordeste 15 Norte 0 -- -- 55
2019-04-12 11:00:00 13.3 8 Nordeste 13 Norte 0 -- -- 64
2019-04-12 10:00:00 9.8 3 Sudoeste 6 Oeste 0 -- -- 87
2019-04-12 09:00:00 7.3 5 Oeste 6 Oeste 0 -- -- 94
2019-04-12 08:00:00 6.2 2 Sudoeste 5 Sudoeste 0 -- -- 94
2019-04-12 07:00:00 6.2 5 Sudoeste 8 Sur 0 -- -- 95
2019-04-12 06:00:00 6.4 7 Sudoeste 8 Sudoeste 0 -- -- 93
2019-04-12 05:00:00 6.7 6 Sudoeste 8 Sur 0 -- -- 92
2019-04-12 04:00:00 7.7 5 Sudoeste 8 Sur 0 -- -- 89
2019-04-12 03:00:00 8.7 5 Sudoeste 7 Sudoeste 0 -- -- 86
2019-04-12 02:00:00 9.6 5 Sudoeste 9 Oeste 0 -- -- 83
2019-04-12 01:00:00 10.1 5 Oeste 14 Oeste 0 -- -- 82
2019-04-12 00:00:00 11.5 10 Oeste 19 Oeste 0 -- -- 79
2019-04-11 23:00:00 12.7 11 Noroeste 23 Oeste 0 -- -- 71
2019-04-11 22:00:00 13.3 8 Noroeste 18 Noroeste 0 -- -- 63
2019-04-11 21:00:00 15.3 11 Noroeste 19 Noroeste 0 -- -- 55
2019-04-11 20:00:00 18.3 10 Noroeste 19 Noroeste 0 -- -- 46
2019-04-11 19:00:00 19.2 12 Noroeste 26 Oeste 0 -- -- 42
2019-04-11 18:00:00 19.6 10 Noroeste 25 Noroeste 0 -- -- 43
2019-04-11 17:00:00 19.8 10 Noroeste 27 Noroeste 0 -- -- 42
2019-04-11 16:00:00 19.4 9 Noroeste 25 Noroeste 0 -- -- 47
2019-04-11 15:00:00 19 10 Noroeste 22 Oeste 0 -- -- 46
2019-04-11 14:00:00 17.7 8 Norte 24 Noroeste 0 -- -- 53
2019-04-11 13:00:00 16.6 8 Noroeste 22 Norte 0 -- -- 59
2019-04-11 12:00:00 14.9 8 Norte 15 Norte 0 -- -- 68
2019-04-11 11:00:00 12.2 5 Oeste 12 Noroeste 0 -- -- 83
2019-04-11 10:00:00 9.2 7 Oeste 11 Oeste 0 -- -- 96
2019-04-11 09:00:00 6.8 5 Oeste 9 Oeste 0 -- -- 99
2019-04-11 08:00:00 5.9 7 Oeste 9 Oeste 0 -- -- 98
2019-04-11 07:00:00 6.2 6 Sudoeste 9 Oeste 0 -- -- 97
2019-04-11 06:00:00 6.6 6 Oeste 13 Oeste 0 -- -- 97
2019-04-11 05:00:00 7 7 Oeste 14 Oeste 0 -- -- 96
2019-04-11 04:00:00 7.1 9 Oeste 13 Oeste 0 -- -- 95
2019-04-11 03:00:00 7.6 8 Oeste 12 Oeste 0 -- -- 92
2019-04-11 02:00:00 8.3 8 Oeste 11 Oeste 0 -- -- 89
2019-04-11 01:00:00 9.5 4 Noroeste 26 Norte 0 -- -- 83
2019-04-11 00:00:00 10.2 14 Noroeste 28 Noroeste 0 -- -- 82
2019-04-10 23:00:00 10.8 11 Noroeste 22 Noroeste 0 -- -- 79
2019-04-10 22:00:00 12.3 13 Noroeste 22 Noroeste 0 -- -- 72
2019-04-10 21:00:00 13.7 14 Noroeste 32 Noroeste 0 -- -- 65
2019-04-10 20:00:00 15.7 17 Norte 40 Noroeste 0 -- -- 58
2019-04-10 19:00:00 17.3 19 Noroeste 44 Noroeste 0 -- -- 50
2019-04-10 18:00:00 17.9 22 Noroeste 37 Oeste 0 -- -- 48
2019-04-10 17:00:00 18.2 17 Noroeste 36 Noroeste 0 -- -- 49
2019-04-10 16:00:00 17.3 17 Noroeste 40 Noroeste 0 -- -- 53
2019-04-10 15:00:00 16.4 22 Noroeste 40 Oeste 0 -- -- 52
2019-04-10 14:00:00 15.9 21 Noroeste 37 Oeste 0 -- -- 55
2019-04-10 13:00:00 15.6 18 Noroeste 39 Noroeste 0 -- -- 59
2019-04-10 12:00:00 14.6 19 Noroeste 36 Noroeste 0 -- -- 63
2019-04-10 11:00:00 13 18 Noroeste 36 Noroeste 0 -- -- 73
2019-04-10 10:00:00 10.2 13 Oeste 23 Oeste 0 -- -- 90
2019-04-10 09:00:00 8 8 Oeste 13 Oeste 0 -- -- 96
2019-04-10 08:00:00 7.7 10 Oeste 16 Oeste 0 -- -- 96
2019-04-10 07:00:00 7.9 8 Sudoeste 14 Sudoeste 0 -- -- 96
2019-04-10 06:00:00 8 10 Sudoeste 16 Sudoeste 0 -- -- 95
2019-04-10 05:00:00 8.2 9 Sudoeste 17 Sudoeste 0 -- -- 95
2019-04-10 04:00:00 8.2 10 Sudoeste 14 Sudoeste 0 -- -- 95
2019-04-10 03:00:00 7.7 8 Sudoeste 17 Sudoeste 0 -- -- 94
2019-04-10 02:00:00 8.5 9 Sudoeste 17 Oeste 0 -- -- 92
2019-04-10 01:00:00 8.9 12 Sudoeste 20 Sudoeste 0 -- -- 89
2019-04-10 00:00:00 9.1 9 Sudoeste 15 Oeste 0 -- -- 87
2019-04-09 23:00:00 9.8 9 Oeste 15 Oeste 0 -- -- 84
2019-04-09 22:00:00 10.3 8 Oeste 21 Oeste 0 -- -- 85
2019-04-09 21:00:00 11.8 8 Oeste 34 Noroeste 0 -- -- 80
2019-04-09 20:00:00 14.6 18 Oeste 41 Oeste 0 -- -- 64
2019-04-09 19:00:00 16.7 22 Oeste 41 Oeste 0 -- -- 55
2019-04-09 18:00:00 16.2 18 Oeste 36 Oeste 0 -- -- 58
2019-04-09 17:00:00 15.1 20 Noroeste 37 Oeste 0 -- -- 58
2019-04-09 16:00:00 15 20 Oeste 40 Noroeste 2.2 -- -- 72
2019-04-09 15:00:00 15.6 24 Sudoeste 36 Sudoeste 0 -- -- 62
2019-04-09 14:00:00 14.1 18 Noroeste 37 Oeste 0 -- -- 73
2019-04-09 13:00:00 15.1 24 Oeste 37 Oeste 0 -- -- 61
2019-04-09 12:00:00 12.6 24 Oeste 48 Oeste 0 -- -- 70
2019-04-09 11:00:00 12.1 21 Oeste 36 Sudoeste 0 -- -- 84
2019-04-09 10:00:00 10.5 21 Sudoeste 29 Sudoeste 0 -- -- 96
2019-04-09 09:00:00 9.2 18 Sudoeste 27 Sudoeste 0 -- -- 98
2019-04-09 08:00:00 8.8 18 Sudoeste 28 Sur 0 -- -- 98
2019-04-09 07:00:00 8.6 14 Sudoeste 21 Sudoeste 0 -- -- 97
2019-04-09 06:00:00 8.9 13 Sudoeste 25 Sudoeste 0 -- -- 96
2019-04-09 05:00:00 8.8 15 Sudoeste 22 Sudoeste 0 -- -- 95
2019-04-09 04:00:00 8.6 15 Sudoeste 25 Sudoeste 0 -- -- 94
2019-04-09 03:00:00 8.8 18 Sudoeste 26 Sudoeste 0 -- -- 91
2019-04-09 02:00:00 9 14 Sudoeste 27 Sudoeste 0 -- -- 89
2019-04-09 01:00:00 9.5 17 Sudoeste 23 Sudoeste 0 -- -- 85
2019-04-09 00:00:00 9.2 10 Sudoeste 23 Sudoeste 0 -- -- 85
2019-04-08 23:00:00 10.2 16 Sudoeste 30 Oeste 0 -- -- 78
2019-04-08 22:00:00 11.3 15 Sudoeste 26 Oeste 0 -- -- 78
2019-04-08 21:00:00 11.9 5 Oeste 21 Oeste 0 -- -- 81
2019-04-08 20:00:00 12.9 12 Noroeste 36 Noroeste 0 -- -- 78
2019-04-08 19:00:00 12.5 24 Noroeste 48 Noroeste 0 -- -- 79
2019-04-08 18:00:00 17.5 22 Oeste 37 Sudoeste 0 -- -- 48
2019-04-08 17:00:00 17.7 22 Sudoeste 33 Oeste 0 -- -- 45
2019-04-08 16:00:00 18 15 Oeste 27 Sudoeste 0 -- -- 44
2019-04-08 15:00:00 17.1 15 Oeste 34 Sudoeste 0 -- -- 47
2019-04-08 14:00:00 15.7 14 Oeste 26 Sudoeste 0 -- -- 56
2019-04-08 13:00:00 16.1 19 Sudoeste 29 Sudoeste 0 -- -- 59
2019-04-08 12:00:00 14.2 13 Oeste 24 Oeste 0 -- -- 74
2019-04-08 11:00:00 13.6 12 Oeste 25 Sudoeste 0 -- -- 88
2019-04-08 10:00:00 12 15 Sudoeste 21 Sudoeste 0 -- -- 97
2019-04-08 09:00:00 11.4 8 Sudoeste 19 Sudoeste 0 -- -- 99
2019-04-08 08:00:00 11.2 11 Sudoeste 17 Sudoeste 0 -- -- 99
2019-04-08 07:00:00 11.2 13 Sudoeste 26 Sudoeste 0 -- -- 99
2019-04-08 06:00:00 11.9 17 Sudoeste 38 Sudoeste 0.4 -- -- 99
2019-04-08 05:00:00 12 27 Sudoeste 41 Sudoeste 1 -- -- 99
2019-04-08 04:00:00 12 26 Sudoeste 39 Sudoeste 0.4 -- -- 98
2019-04-08 03:00:00 12 24 Sudoeste 35 Sudoeste 0 -- -- 97
2019-04-08 02:00:00 12.2 22 Sudoeste 37 Sudoeste 0 -- -- 95
2019-04-08 01:00:00 12.3 22 Sudoeste 35 Sudoeste 0 -- -- 95
2019-04-08 00:00:00 12.4 19 Sudoeste 27 Sudoeste 0 -- -- 94
2019-04-07 23:00:00 13 16 Sudoeste 25 Oeste 0 -- -- 93
2019-04-07 22:00:00 13.2 15 Sudoeste 25 Sudoeste 0 -- -- 93
2019-04-07 21:00:00 13.4 15 Sudoeste 25 Sudoeste 0 -- -- 95
2019-04-07 20:00:00 13.6 15 Sudoeste 32 Sudoeste 0 -- -- 95
2019-04-07 19:00:00 13.4 20 Sudoeste 30 Sudoeste 0.8 -- -- 97
2019-04-07 18:00:00 13.9 19 Sudoeste 38 Sudoeste 0 -- -- 88
2019-04-07 17:00:00 13.6 23 Sudoeste 31 Sudoeste 0 -- -- 87
2019-04-07 16:00:00 12.2 20 Sudoeste 30 Sur 0 -- -- 91
2019-04-07 15:00:00 11.5 19 Sudoeste 29 Sudoeste 0.2 -- -- 96
2019-04-07 14:00:00 11.7 17 Sudoeste 31 Sudoeste 0 -- -- 91
2019-04-07 13:00:00 10.7 17 Sudoeste 30 Sudoeste 0.4 -- -- 94
2019-04-07 12:00:00 13.1 16 Sudoeste 28 Sudoeste 0 -- -- 77
2019-04-07 11:00:00 11.6 14 Sudoeste 25 Sur 0 -- -- 84
2019-04-07 10:00:00 9.8 19 Sur 26 Sur 0 -- -- 93
2019-04-07 09:00:00 9.2 17 Sudoeste 29 Sudoeste 0 -- -- 92
2019-04-07 08:00:00 9 17 Sudoeste 32 Sudoeste 0 -- -- 92
2019-04-07 07:00:00 8.7 19 Sudoeste 28 Sur 0 -- -- 95
2019-04-07 06:00:00 8.8 15 Sudoeste 26 Sudoeste 0 -- -- 93
2019-04-07 05:00:00 8.2 14 Sudoeste 27 Sudoeste 0 -- -- 93
2019-04-07 04:00:00 8.3 20 Sudoeste 33 Sudoeste 0 -- -- 92
2019-04-07 03:00:00 8.8 17 Sudoeste 36 Sudoeste 0 -- -- 91
2019-04-07 02:00:00 8.9 19 Sudoeste 30 Sudoeste 0 -- -- 91
2019-04-07 01:00:00 8.8 18 Sudoeste 27 Sudoeste 0 -- -- 89
2019-04-07 00:00:00 8.7 20 Sudoeste 33 Sudoeste 0 -- -- 87
2019-04-06 23:00:00 9.1 21 Oeste 32 Oeste 0 -- -- 81
2019-04-06 22:00:00 10 16 Oeste 47 Oeste 0 -- -- 78
2019-04-06 21:00:00 11.5 27 Oeste 40 Sudoeste 0 -- -- 70
2019-04-06 20:00:00 12.5 21 Oeste 46 Oeste 0 -- -- 63
2019-04-06 19:00:00 13.5 24 Oeste 48 Oeste 0 -- -- 56
2019-04-06 18:00:00 11.8 21 Noroeste 39 Oeste 0 -- -- 72
2019-04-06 17:00:00 12.6 22 Oeste 34 Oeste 0 -- -- 70
2019-04-06 16:00:00 8.4 17 Oeste 44 Oeste 2.2 -- -- 87
2019-04-06 15:00:00 9.8 7 Oeste 46 Noroeste 1.2 -- -- 85
2019-04-06 14:00:00 14.1 21 Oeste 39 Oeste 0 -- -- 57
2019-04-06 13:00:00 12.7 23 Oeste 40 Oeste 0 -- -- 70
2019-04-06 12:00:00 9.9 22 Sudoeste 37 Sudoeste 0.2 -- -- 85
2019-04-06 11:00:00 10 22 Sudoeste 41 Sudoeste 0 -- -- 86
2019-04-06 10:00:00 9.1 24 Sudoeste 37 Sudoeste 0.2 -- -- 90
2019-04-06 09:00:00 7.3 22 Sudoeste 32 Sudoeste 0 -- -- 97
2019-04-06 08:00:00 7.2 21 Sudoeste 32 Sudoeste 0 -- -- 94
2019-04-06 07:00:00 7 17 Sudoeste 29 Sudoeste 0 -- -- 94
2019-04-06 06:00:00 7 18 Sudoeste 28 Sudoeste 0 -- -- 96
2019-04-06 05:00:00 6.9 15 Sudoeste 26 Sudoeste 0 -- -- 96
2019-04-06 04:00:00 7 17 Sudoeste 26 Sudoeste 0 -- -- 95
2019-04-06 03:00:00 7.1 18 Sudoeste 28 Sudoeste 0 -- -- 93
2019-04-06 02:00:00 7.2 20 Sudoeste 32 Sudoeste 0 -- -- 93
2019-04-06 01:00:00 7.3 24 Sudoeste 34 Oeste 0 -- -- 91
2019-04-06 00:00:00 7.2 19 Sudoeste 27 Sudoeste 0 -- -- 91
2019-04-05 23:00:00 6.9 13 Sudoeste 22 Sudoeste 0 -- -- 92
2019-04-05 22:00:00 7 10 Oeste 15 Oeste 0.4 -- -- 95
2019-04-05 21:00:00 6.2 17 Noroeste 43 Noroeste 2.4 -- -- 87
2019-04-05 20:00:00 8.8 17 Oeste 31 Sudoeste 0 -- -- 81
2019-04-05 19:00:00 8.6 18 Oeste 29 Oeste 0.2 -- -- 88
2019-04-05 18:00:00 6.6 4 Oeste 50 Sudoeste 3.2 -- -- 91
2019-04-05 17:00:00 10.8 33 Sudoeste 57 Sudoeste 0 -- -- 65
2019-04-05 16:00:00 10.7 13 Oeste 52 Oeste 0.4 -- -- 69
2019-04-05 15:00:00 12.7 22 Oeste 37 Oeste 0 -- -- 51
2019-04-05 14:00:00 12.1 21 Oeste 35 Sudoeste 0 -- -- 58
2019-04-05 13:00:00 9.8 21 Oeste 36 Sudoeste 0 -- -- 73
2019-04-05 12:00:00 7.7 17 Sudoeste 24 Sudoeste 0 -- -- 83
2019-04-05 11:00:00 5.9 11 Oeste 18 Oeste 0 -- -- 90
2019-04-05 10:00:00 4.9 8 Noroeste 43 Noroeste 0 -- -- 93
2019-04-05 09:00:00 7 24 Oeste 41 Noroeste 0.4 -- -- 95
2019-04-05 08:00:00 7.8 13 Sudoeste 19 Oeste 0 -- -- 97
2019-04-05 07:00:00 8.3 13 Sudoeste 31 Sudoeste 0.2 -- -- 97
2019-04-05 06:00:00 8.5 21 Sudoeste 35 Sudoeste 0 -- -- 96
2019-04-05 05:00:00 8.3 22 Sudoeste 34 Sur 0 -- -- 94
2019-04-05 04:00:00 8.2 23 Sudoeste 42 Sudoeste 0.6 -- -- 94
2019-04-05 03:00:00 8.1 30 Sudoeste 46 Sudoeste 3.4 -- -- 97
2019-04-05 02:00:00 8 24 Sur 37 Sur 0.4 -- -- 95
2019-04-05 01:00:00 8.1 18 Sur 31 Sudoeste 0.2 -- -- 91
2019-04-05 00:00:00 8.2 16 Sudoeste 25 Sudoeste 1 -- -- 92
2019-04-04 23:00:00 9.2 13 Oeste 28 Oeste 0.4 -- -- 87
2019-04-04 22:00:00 11.5 13 Oeste 37 Oeste 0 -- -- 59
2019-04-04 21:00:00 12.8 19 Oeste 30 Oeste 0 -- -- 51
2019-04-04 20:00:00 14 17 Oeste 35 Oeste 0 -- -- 47
2019-04-04 19:00:00 16.5 19 Oeste 35 Oeste 0 -- -- 38
2019-04-04 18:00:00 17.1 16 Oeste 30 Sudoeste 0 -- -- 35
2019-04-04 17:00:00 17 13 Oeste 27 Oeste 0 -- -- 32
2019-04-04 16:00:00 16.5 14 Oeste 27 Oeste 0 -- -- 32
2019-04-04 15:00:00 15.7 8 Oeste 22 Oeste 0 -- -- 34
2019-04-04 14:00:00 14.8 9 Oeste 22 Norte 0 -- -- 36
2019-04-04 13:00:00 13.4 13 Norte 25 Norte 0 -- -- 40
2019-04-04 12:00:00 11.7 13 Norte 25 Norte 0 -- -- 44
2019-04-04 11:00:00 9.7 10 Norte 18 Nordeste 0 -- -- 57
2019-04-04 10:00:00 7.1 3 Nordeste 6 Noroeste 0 -- -- 73
2019-04-04 09:00:00 3.7 3 Oeste 9 Oeste 0 -- -- 87
2019-04-04 08:00:00 3.2 4 Noroeste 16 Norte 0 -- -- 82
2019-04-04 07:00:00 3.9 4 Noroeste 13 Norte 0 -- -- 80
2019-04-04 06:00:00 4.1 5 Norte 13 Norte 0 -- -- 82
2019-04-04 05:00:00 4.4 4 Noroeste 8 Noroeste 0 -- -- 88
2019-04-04 04:00:00 4.8 5 Oeste 9 Noroeste 0 -- -- 86
2019-04-04 03:00:00 5.4 6 Oeste 9 Noroeste 0 -- -- 82
2019-04-04 02:00:00 6.9 6 Noroeste 18 Noroeste 0 -- -- 75
2019-04-04 01:00:00 7.9 9 Noroeste 23 Norte 0 -- -- 73
2019-04-04 00:00:00 9 13 Noroeste 28 Noroeste 0 -- -- 70
2019-04-03 23:00:00 10.1 16 Noroeste 29 Noroeste 0 -- -- 65
2019-04-03 22:00:00 11.3 16 Noroeste 31 Noroeste 0 -- -- 59
2019-04-03 21:00:00 12.9 12 Oeste 31 Noroeste 0 -- -- 53
2019-04-03 20:00:00 15.4 21 Oeste 32 Noroeste 0 -- -- 46
2019-04-03 19:00:00 17.7 17 Noroeste 32 Noroeste 0 -- -- 39
2019-04-03 18:00:00 18.4 13 Noroeste 31 Noroeste 0 -- -- 41
2019-04-03 17:00:00 18.2 10 Noroeste 26 Noroeste 0 -- -- 47
2019-04-03 16:00:00 17.6 14 Oeste 34 Oeste 0 -- -- 48
2019-04-03 15:00:00 17 14 Noroeste 26 Noroeste 0 -- -- 51
2019-04-03 14:00:00 15.5 12 Noroeste 27 Oeste 0 -- -- 58
2019-04-03 13:00:00 14.5 9 Noroeste 23 Oeste 0 -- -- 59
2019-04-03 12:00:00 12.2 10 Noroeste 22 Oeste 0 -- -- 71
2019-04-03 11:00:00 11.1 10 Oeste 23 Oeste 0 -- -- 76
2019-04-03 10:00:00 9.1 11 Oeste 18 Oeste 0 -- -- 89
2019-04-03 09:00:00 7.4 10 Sudoeste 18 Oeste 0 -- -- 94
2019-04-03 08:00:00 6.8 9 Sudoeste 22 Oeste 0 -- -- 95
2019-04-03 07:00:00 7.4 12 Oeste 24 Oeste 0 -- -- 92
2019-04-03 06:00:00 7.7 13 Oeste 22 Oeste 0 -- -- 93
2019-04-03 05:00:00 8 12 Oeste 17 Oeste 0 -- -- 94
2019-04-03 04:00:00 8.7 11 Oeste 16 Oeste 0 -- -- 94
2019-04-03 03:00:00 9.4 9 Oeste 17 Oeste 0 -- -- 93
2019-04-03 02:00:00 10.4 12 Oeste 18 Oeste 0 -- -- 91
2019-04-03 01:00:00 11.5 9 Oeste 17 Noroeste 0 -- -- 86
2019-04-03 00:00:00 12.4 7 Oeste 15 Oeste 0 -- -- 79
2019-04-02 23:00:00 14.6 10 Oeste 22 Noroeste 0 -- -- 67
2019-04-02 22:00:00 15.5 3 Oeste 9 Oeste 0 -- -- 65
2019-04-02 21:00:00 16.7 6 Oeste 10 Sudoeste 0 -- -- 66
2019-04-02 20:00:00 17.8 6 Sudoeste 17 Sudoeste 0 -- -- 60
2019-04-02 19:00:00 18.5 11 Sudoeste 22 Oeste 0 -- -- 60
2019-04-02 18:00:00 20.7 15 Sudoeste 25 Sudoeste 0 -- -- 53
2019-04-02 17:00:00 21.3 12 Oeste 22 Sudoeste 0 -- -- 49
2019-04-02 16:00:00 20.3 6 Oeste 12 Sudoeste 0 -- -- 51
2019-04-02 15:00:00 19.3 4 Norte 12 Noroeste 0 -- -- 58
2019-04-02 14:00:00 18.5 5 Norte 13 Nordeste 0 -- -- 57
2019-04-02 13:00:00 16.6 5 Oeste 11 Oeste 0 -- -- 76
2019-04-02 12:00:00 14.2 5 Sudoeste 11 Oeste 0 -- -- 89
2019-04-02 11:00:00 11.7 6 Oeste 11 Oeste 0 -- -- 99
2019-04-02 10:00:00 10.3 5 Sudoeste 8 Sudoeste 0 -- -- 100
2019-04-02 09:00:00 7 5 Oeste 9 Oeste 0 -- -- 100
2019-04-02 08:00:00 7.9 3 Sudoeste 6 Sur 0 -- -- 99
2019-04-02 07:00:00 8.8 3 Sur 5 Sudeste 0 -- -- 100
2019-04-02 06:00:00 8.9 5 Sudoeste 8 Sudoeste 0 -- -- 99
2019-04-02 05:00:00 9.1 5 Sudoeste 8 Sur 0 -- -- 99
2019-04-02 04:00:00 9.9 3 Sur 13 Sudoeste 0 -- -- 99
2019-04-02 03:00:00 10.5 9 Sudoeste 14 Sudoeste 0 -- -- 98
2019-04-02 02:00:00 10.5 9 Sudoeste 13 Sudoeste 0 -- -- 97
2019-04-02 01:00:00 10.6 8 Oeste 14 Sudoeste 0 -- -- 95
2019-04-02 00:00:00 11.3 6 Sudoeste 9 Sudoeste 0 -- -- 95
2019-04-01 23:00:00 11.8 6 Sudoeste 8 Sudoeste -- -- -- 93
2019-04-01 22:00:00 12.5 7 Sudoeste 17 Sur 0 -- -- 90
2019-04-01 21:00:00 13.4 14 Sudoeste 22 Sudoeste 0 -- -- 88
2019-04-01 20:00:00 14.3 10 Sudeste 14 Sudeste 0 -- -- 80
2019-04-01 19:00:00 15.7 12 Sudeste 20 Sudeste 0.4 -- -- 77
2019-04-01 18:00:00 13 9 Noroeste 21 Noroeste 1.2 -- -- 87
2019-04-01 17:00:00 14.6 15 Norte 35 Norte 0.2 -- -- 82
2019-04-01 16:00:00 16.6 15 Este 37 Este 0 -- -- 70
2019-04-01 15:00:00 18.1 9 Este 18 Este 0 -- -- 63
2019-04-01 14:00:00 18.1 6 Este 12 Este 0 -- -- 66
2019-04-01 13:00:00 16.5 3 Sudoeste 12 Sudoeste 0 -- -- 76
2019-04-01 12:00:00 15.8 6 Sudoeste 12 Oeste 0 -- -- 75
2019-04-01 11:00:00 15 3 Oeste 9 Sudoeste 0 -- -- 83
2019-04-01 10:00:00 12.9 3 Este 6 Este 0 -- -- 95
2019-04-01 09:00:00 10.7 6 Este 9 Nordeste 0 -- -- 99
2019-04-01 08:00:00 11.1 3 Nordeste 8 Este 0 -- -- 98
2019-04-01 07:00:00 11.2 7 Este 9 Este 0 -- -- 98
2019-04-01 06:00:00 11.3 6 Este 10 Este 0 -- -- 98
2019-04-01 05:00:00 11.2 5 Este 12 Nordeste 1 -- -- 98
2019-04-01 04:00:00 11.6 7 Este 10 Este 0.4 -- -- 96
2019-04-01 03:00:00 11.4 6 Sudeste 8 Sudeste 0.2 -- -- 97
2019-04-01 02:00:00 11.2 9 Este 12 Este 0 -- -- 97
2019-04-01 01:00:00 11.4 2 Este 8 Noroeste 0 -- -- 95
2019-04-01 00:00:00 11.6 5 Norte 17 Nordeste 0 -- -- 95
2019-03-31 23:00:00 12 7 Sudoeste 17 Sur 0.2 -- -- 87
2019-03-31 22:00:00 11.8 9 Sur 31 Sur 0.8 -- -- 91
2019-03-31 21:00:00 11.8 21 Sudoeste 45 Sur 3.2 -- -- 93
2019-03-31 20:00:00 12.1 32 Sur 49 Sudoeste 10 -- -- 92
2019-03-31 19:00:00 17.4 12 Sur 27 Nordeste 0 -- -- 67
2019-03-31 18:00:00 21.2 9 Norte 27 Norte 0 -- -- 47
2019-03-31 17:00:00 21.4 4 Oeste 11 Noroeste 0 -- -- 46
2019-03-31 16:00:00 19.3 10 Este 17 Nordeste 0 -- -- 54
2019-03-31 15:00:00 19.1 5 Noroeste 13 Oeste 0 -- -- 57
2019-03-31 14:00:00 18.2 6 Sudoeste 18 Oeste 0 -- -- 60
2019-03-31 13:00:00 18.2 9 Oeste 17 Oeste 0 -- -- 62
2019-03-31 12:00:00 16.7 9 Sudoeste 17 Sudoeste 0 -- -- 73
2019-03-31 11:00:00 15.6 10 Sudoeste 17 Sudoeste 0 -- -- 77
2019-03-31 10:00:00 12.9 4 Sudeste 12 Sudeste 0 -- -- 87
2019-03-31 09:00:00 9.1 12 Este 14 Este 0 -- -- 96
2019-03-31 08:00:00 9.2 3 Este 6 Este 0 -- -- 93
2019-03-31 07:00:00 9.2 3 Noroeste 14 Sudoeste 0 -- -- 91
2019-03-31 06:00:00 11.2 7 Sudoeste 18 Sur 0 -- -- 87
2019-03-31 05:00:00 11.7 10 Sudoeste 15 Sur 0 -- -- 83
2019-03-31 03:00:00 11.7 5 Sur 9 Este 0 -- -- 80
2019-03-31 01:00:00 12.3 7 Este 13 Este 0 -- -- 78
2019-03-31 00:00:00 13.1 7 Nordeste 14 Sudeste 0 -- -- 76
2019-03-30 23:00:00 14.5 8 Sur 25 Sudeste 0 -- -- 66
2019-03-30 22:00:00 14.8 19 Sudeste 32 Sur 0 -- -- 70
2019-03-30 21:00:00 16.3 19 Sur 36 Sur 0 -- -- 59
2019-03-30 20:00:00 16 13 Nordeste 21 Norte 0 -- -- 50
2019-03-30 19:00:00 19.2 15 Nordeste 23 Nordeste 0 -- -- 42
2019-03-30 18:00:00 21.2 17 Nordeste 33 Nordeste 0 -- -- 39
2019-03-30 17:00:00 22.5 18 Nordeste 33 Nordeste 0 -- -- 37
2019-03-30 16:00:00 22.1 14 Nordeste 34 Nordeste 0 -- -- 40
2019-03-30 15:00:00 21.7 20 Nordeste 35 Nordeste 0 -- -- 41
2019-03-30 14:00:00 21 23 Nordeste 38 Nordeste 0 -- -- 43
2019-03-30 13:00:00 20 20 Este 36 Nordeste 0 -- -- 48
2019-03-30 12:00:00 19.1 20 Este 37 Este 0 -- -- 48
2019-03-30 11:00:00 15.6 20 Nordeste 27 Nordeste 0 -- -- 66
2019-03-30 10:00:00 11.5 8 Nordeste 13 Nordeste 0 -- -- 73
2019-03-30 09:00:00 10.4 11 Este 15 Este 0 -- -- 70
2019-03-30 08:00:00 8.6 12 Nordeste 15 Nordeste 0 -- -- 82
2019-03-30 07:00:00 9.5 7 Este 9 Este 0 -- -- 86
2019-03-30 06:00:00 10.3 5 Este 11 Este 0 -- -- 87
2019-03-30 05:00:00 12 6 Sur 16 Sur 0 -- -- 85
2019-03-30 04:00:00 12 9 Sur 19 Sudoeste 0 -- -- 82
2019-03-30 03:00:00 12.3 4 Sudeste 21 Sudoeste 0 -- -- 79
2019-03-30 02:00:00 13.2 17 Sudoeste 32 Sudoeste 0 -- -- 74
2019-03-30 01:00:00 12 14 Sudoeste 24 Sudoeste 0 -- -- 74
2019-03-30 00:00:00 11.3 3 Este 18 Sur 0 -- -- 43
2019-03-29 23:00:00 11.6 11 Nordeste 16 Nordeste 0 -- -- 44
2019-03-29 22:00:00 12.6 10 Nordeste 13 Norte 0 -- -- 45
2019-03-29 21:00:00 14.1 11 Norte 13 Norte 0 -- -- 38
2019-03-29 20:00:00 15.8 11 Norte 15 Norte 0 -- -- 36
2019-03-29 19:00:00 19 10 Norte 18 Norte 0 -- -- 32
2019-03-29 18:00:00 20.9 15 Norte 24 Norte 0 -- -- 24
2019-03-29 17:00:00 21.8 13 Nordeste 22 Este 0 -- -- 22
2019-03-29 16:00:00 22.1 12 Este 22 Este 0 -- -- 22
2019-03-29 15:00:00 21.4 13 Sudeste 41 Nordeste 0 -- -- 26
2019-03-29 14:00:00 21.1 19 Este 33 Este 0 -- -- 26
2019-03-29 13:00:00 19.6 19 Nordeste 31 Nordeste 0 -- -- 31
2019-03-29 12:00:00 18.2 18 Este 33 Nordeste 0 -- -- 35
2019-03-29 11:00:00 16.3 17 Este 28 Este 0 -- -- 41
2019-03-29 10:00:00 12.1 18 Nordeste 25 Nordeste 0 -- -- 58
2019-03-29 09:00:00 7.8 9 Nordeste 14 Nordeste 0 -- -- 64
2019-03-29 08:00:00 4.9 12 Nordeste 14 Nordeste 0 -- -- 73
2019-03-29 07:00:00 4.1 12 Este 14 Este 0 -- -- 74
2019-03-29 06:00:00 7.2 5 Nordeste 8 Noroeste 0 -- -- 59
2019-03-29 05:00:00 9.2 9 Sur 18 Sur 0 -- -- 52
2019-03-29 04:00:00 9.4 8 Sudeste 18 Sudeste 0 -- -- 49
2019-03-29 03:00:00 9.4 13 Sudeste 16 Sudeste 0 -- -- 53
2019-03-29 02:00:00 9.8 7 Sudeste 10 Sudeste 0 -- -- 53
2019-03-29 01:00:00 11.5 3 Noroeste 9 Nordeste 0 -- -- 46
2019-03-29 00:00:00 12.2 6 Sur 12 Sudeste 0 -- -- 45
2019-03-28 23:00:00 12.8 13 Sudeste 15 Sudeste 0 -- -- 44
2019-03-28 22:00:00 14.2 11 Sudeste 14 Sudeste 0 -- -- 38
2019-03-28 21:00:00 15.1 13 Sudeste 15 Sudeste 0 -- -- 36
2019-03-28 20:00:00 17 9 Sur 21 Sudeste 0 -- -- 25
2019-03-28 19:00:00 19.7 16 Este 24 Este 0 -- -- 19
2019-03-28 18:00:00 21.5 19 Este 37 Este 0 -- -- 17
2019-03-28 17:00:00 22.1 19 Este 40 Este 0 -- -- 17
2019-03-28 16:00:00 21.9 24 Este 45 Nordeste 0 -- -- 19
2019-03-28 15:00:00 21.4 28 Nordeste 45 Este 0 -- -- 27
2019-03-28 14:00:00 20.9 19 Este 40 Este 0 -- -- 33
2019-03-28 13:00:00 19.4 26 Nordeste 38 Nordeste 0 -- -- 36
2019-03-28 12:00:00 18.1 19 Este 32 Nordeste 0 -- -- 44
2019-03-28 11:00:00 15.8 16 Este 25 Nordeste 0 -- -- 53
2019-03-28 10:00:00 12.7 9 Nordeste 13 Nordeste 0 -- -- 63
2019-03-28 09:00:00 10.2 7 Este 17 Sudeste 0 -- -- 69
2019-03-28 08:00:00 8 15 Sudeste 18 Este 0 -- -- 73
2019-03-28 07:00:00 6.9 15 Sudeste 15 Sudeste 0 -- -- 85
2019-03-28 06:00:00 7 8 Este 13 Este 0 -- -- 87
2019-03-28 05:00:00 7.6 5 Este 10 Sudoeste 0 -- -- 83
2019-03-28 04:00:00 10 6 Sudoeste 17 Sudoeste 0 -- -- 79
2019-03-28 03:00:00 11 13 Sudoeste 24 Sudoeste 0 -- -- 74
2019-03-28 02:00:00 11.7 17 Sudoeste 28 Sudoeste 0 -- -- 68
2019-03-28 01:00:00 12.1 19 Sudoeste 28 Sur 0 -- -- 59
2019-03-28 00:00:00 11.9 9 Sudeste 22 Sur 0 -- -- 41
2019-03-27 23:00:00 13.9 9 Este 12 Este 0 -- -- 31
2019-03-27 22:00:00 13.2 12 Este 17 Este 0 -- -- 35
2019-03-27 21:00:00 14.2 14 Este 19 Nordeste 0 -- -- 34
2019-03-27 20:00:00 15 14 Nordeste 25 Nordeste 0 -- -- 35
2019-03-27 19:00:00 19 24 Nordeste 38 Nordeste 0 -- -- 28
2019-03-27 18:00:00 20.4 26 Nordeste 42 Nordeste 0 -- -- 25
2019-03-27 17:00:00 21 29 Nordeste 41 Nordeste 0 -- -- 25
2019-03-27 16:00:00 21.1 30 Nordeste 44 Nordeste 0 -- -- 25
2019-03-27 15:00:00 20.7 28 Nordeste 48 Este 0 -- -- 28
2019-03-27 14:00:00 20.2 31 Este 48 Nordeste 0 -- -- 27
2019-03-27 13:00:00 18.7 29 Nordeste 42 Este 0 -- -- 34
2019-03-27 12:00:00 17.5 30 Nordeste 39 Nordeste 0 -- -- 37
2019-03-27 11:00:00 16 27 Este 39 Este 0 -- -- 47
2019-03-27 10:00:00 13.9 29 Este 37 Nordeste 0 -- -- 52
2019-03-27 09:00:00 10.8 28 Nordeste 39 Nordeste 0 -- -- 60
2019-03-27 08:00:00 8.7 23 Este 30 Este 0 -- -- 67
2019-03-27 07:00:00 7.5 10 Este 25 Este 0 -- -- 72
2019-03-27 06:00:00 8 14 Este 23 Este 0 -- -- 71
2019-03-27 05:00:00 8.7 14 Este 18 Este 0 -- -- 69
2019-03-27 04:00:00 10.2 9 Este 17 Nordeste 0 -- -- 61
2019-03-27 03:00:00 12.3 5 Este 18 Sudeste 0 -- -- 52
2019-03-27 02:00:00 13.2 15 Este 32 Este 0 -- -- 49
2019-03-27 01:00:00 13.4 15 Este 22 Este 0 -- -- 46
2019-03-27 00:00:00 11.3 17 Nordeste 19 Nordeste 0 -- -- 50
2019-03-26 23:00:00 13.8 11 Nordeste 14 Nordeste 0 -- -- 41
2019-03-26 22:00:00 16.4 9 Este 21 Este 0 -- -- 36
2019-03-26 21:00:00 17.3 10 Sudeste 21 Este 0 -- -- 34
2019-03-26 20:00:00 19.1 14 Este 25 Este 0 -- -- 30
2019-03-26 19:00:00 22.5 18 Este 36 Este 0 -- -- 26
2019-03-26 18:00:00 24.1 27 Nordeste 39 Nordeste 0 -- -- 23
2019-03-26 17:00:00 25.6 21 Este 37 Este 0 -- -- 21
2019-03-26 16:00:00 25.4 27 Este 46 Nordeste 0 -- -- 23
2019-03-26 15:00:00 24 33 Nordeste 55 Este 0 -- -- 26
2019-03-26 14:00:00 22.9 32 Nordeste 50 Nordeste 0 -- -- 27
2019-03-26 13:00:00 20.9 37 Nordeste 49 Nordeste 0 -- -- 30
2019-03-26 12:00:00 17.6 39 Nordeste 49 Nordeste 0 -- -- 34
2019-03-26 11:00:00 17.3 36 Nordeste 45 Nordeste 0 -- -- 37
2019-03-26 10:00:00 14.2 27 Nordeste 35 Nordeste 0 -- -- 43
2019-03-26 09:00:00 9.3 17 Nordeste 26 Nordeste 0 -- -- 65
2019-03-26 08:00:00 7 22 Nordeste 24 Nordeste 0 -- -- 71
2019-03-26 07:00:00 6.3 21 Nordeste 23 Nordeste 0 -- -- 72
2019-03-26 06:00:00 6.9 21 Nordeste 24 Nordeste 0 -- -- 69
2019-03-26 05:00:00 6.5 18 Nordeste 20 Nordeste 0 -- -- 72
2019-03-26 04:00:00 8 18 Nordeste 25 Nordeste 0 -- -- 68
2019-03-26 03:00:00 8.3 15 Nordeste 17 Nordeste 0 -- -- 66
2019-03-26 02:00:00 8.9 16 Nordeste 17 Nordeste 0 -- -- 60
2019-03-26 01:00:00 11.2 15 Nordeste 21 Nordeste 0 -- -- 53
2019-03-26 00:00:00 12.8 15 Nordeste 19 Nordeste 0 -- -- 45
2019-03-25 23:00:00 12.9 12 Nordeste 22 Nordeste 0 -- -- 43
2019-03-25 22:00:00 14.5 13 Nordeste 17 Nordeste 0 -- -- 39
2019-03-25 21:00:00 15 12 Nordeste 16 Este 0 -- -- 37
2019-03-25 20:00:00 17.4 13 Nordeste 25 Este 0 -- -- 33
2019-03-25 19:00:00 21.6 21 Este 40 Nordeste 0 -- -- 26
2019-03-25 18:00:00 23 30 Nordeste 47 Nordeste 0 -- -- 22
2019-03-25 17:00:00 23.5 34 Nordeste 46 Nordeste 0 -- -- 23
2019-03-25 16:00:00 23.7 33 Este 45 Nordeste 0 -- -- 22
2019-03-25 15:00:00 23.3 33 Nordeste 47 Nordeste 0 -- -- 25
2019-03-25 14:00:00 22.6 29 Nordeste 44 Nordeste 0 -- -- 31
2019-03-25 13:00:00 21.9 27 Nordeste 45 Nordeste 0 -- -- 34
2019-03-25 12:00:00 20.2 32 Nordeste 42 Nordeste 0 -- -- 38
2019-03-25 11:00:00 16.5 17 Nordeste 23 Este 0 -- -- 57
2019-03-25 10:00:00 12 13 Nordeste 18 Este 0 -- -- 71
2019-03-25 09:00:00 8.4 15 Nordeste 24 Nordeste 0 -- -- 84
2019-03-25 08:00:00 7.2 6 Nordeste 13 Nordeste 0 -- -- 89
2019-03-25 07:00:00 9 8 Este 10 Este 0 -- -- 83
2019-03-25 06:00:00 9.7 9 Este 13 Sudeste 0 -- -- 81
2019-03-25 05:00:00 10.6 6 Sudeste 10 Sudeste 0 -- -- 77
2019-03-25 04:00:00 10.6 6 Sur 13 Sudeste 0 -- -- 78
2019-03-25 03:00:00 11.4 4 Sur 7 Sudeste 0 -- -- 75
2019-03-25 02:00:00 11.8 4 Oeste 8 Noroeste 0 -- -- 73
2019-03-25 01:00:00 13.3 5 Oeste 8 Oeste 0 -- -- 66
2019-03-25 00:00:00 14.1 3 Sur 12 Sudoeste 0 -- -- 62